METAR UND TAF INFORMATION

METAR FOR EYVI
ADDS - METARS form results

(0304 UTC 26 June 2022)
Data provider http://aviationweather.gov/metar/data/
 
METAR text: EYVI 260250Z 10005KT CAVOK 19/15 Q1020 NOSIG
Conditions at: EYVI (VILNIUS INTL , LT) observed 0250 UTC 26 June 2022
Temperature: 19.0°C (66°F)
Dewpoint: 15.0°C (59°F) [RH = 78%]
Pressure (altimeter): 30.12 inches Hg (1020.0 mb)
Winds: from the E (100 degrees) at 6 MPH (5 knots; 2.6 m/s)
Visibility: 6 or more miles (10+ km)
Ceiling: ceiling and visibility are OK
Clouds: unknown
Weather: no significant weather observed at this time

METAR text: EYVI 260220Z 10005KT CAVOK 19/15 Q1020 NOSIG
Conditions at: EYVI (VILNIUS INTL , LT) observed 0220 UTC 26 June 2022
Temperature: 19.0°C (66°F)
Dewpoint: 15.0°C (59°F) [RH = 78%]
Pressure (altimeter): 30.12 inches Hg (1020.0 mb)
Winds: from the E (100 degrees) at 6 MPH (5 knots; 2.6 m/s)
Visibility: 6 or more miles (10+ km)
Ceiling: ceiling and visibility are OK
Clouds: unknown
Weather: no significant weather observed at this time

Forecast for: EYVI (VILNIUS INTL , LT)
Text: TAF EYVI 252300Z 2600/2624 VRB05KT 9000 NSC
Forecast period: 0000 to 1000 UTC 26 June 2022
Forecast type: FROM: standard forecast or significant change
Winds: variable direction winds at 6 MPH (5 knots; 2.6 m/s)
Visibility: 6 miles (9 km)
Ceiling: unknown
Clouds: missing
Weather: no significant weather forecast for this period
Text: BECMG 2610/2611 SCT040
Forecast period: 1000 UTC 26 June 2022 to 0000 UTC 27 June 2022
Forecast type: BECOMING: Conditions expected to become as follows by 1100 UTC 26 June 2022
Winds: variable direction winds at 6 MPH (5 knots; 2.6 m/s)
Visibility: 6 miles (9 km)
Ceiling: at least 12,000 feet AGL
Clouds: scattered clouds at 4000 feet AGL
Weather: no significant weather forecast for this period

 FLUGHAFENKARTE

 RUNWAY INFORMATION
Runway 02 Runway length 8251 ft Runway width 164 ft
Runway elevation 594 ft Runway displaced threshold 0 ft Runway heading 22
Runway 20 Runway length 8251 ft Runway width 164 ft
Runway elevation 646 ft Runway displaced threshold 0 ft Runway heading 202

 AIRPORT FREQUENCIES
Type APP Name APP Frequency 120.7 MHZ
Type ATIS Name ATIS Frequency 125.8 MHZ
Type TWR Name TWR Frequency 118.2 MHZ

 AIRPORT NEAR NAVIGATION AIDS
Type NDB Name Vilnius Frequency 385 KHZ
Type VOR-DME Name Vilnius Frequency 113800 KHZ